createdAt,value
2023-03-18T00:02:19.983Z,10.35
2023-03-18T00:05:45.122Z,10.33
2023-03-18T00:09:10.278Z,10.28
2023-03-18T00:12:35.480Z,10.23
2023-03-18T00:16:00.726Z,10.19
2023-03-18T00:19:25.873Z,10.14
2023-03-18T00:22:51.074Z,10.09
2023-03-18T00:26:16.296Z,10.04
2023-03-18T00:29:41.547Z,10.02
2023-03-18T00:33:06.758Z,10.01
2023-03-18T00:36:31.947Z,10.01
2023-03-18T00:39:57.120Z,9.96
2023-03-18T00:43:22.336Z,9.94
2023-03-18T00:46:47.611Z,9.96
2023-03-18T00:50:12.768Z,9.97
2023-03-18T00:53:37.949Z,9.98
2023-03-18T00:57:03.149Z,9.95
2023-03-18T01:00:28.365Z,9.93
2023-03-18T01:03:53.575Z,9.92
2023-03-18T01:07:18.782Z,9.92
2023-03-18T01:10:43.950Z,9.88
2023-03-18T01:14:09.139Z,9.88
2023-03-18T01:17:34.320Z,9.9
2023-03-18T01:20:59.551Z,9.93
2023-03-18T01:24:24.728Z,9.98
2023-03-18T01:27:49.919Z,10
2023-03-18T01:31:15.199Z,10
2023-03-18T01:34:40.320Z,9.96
2023-03-18T01:38:05.557Z,9.86
2023-03-18T01:41:30.708Z,9.78
2023-03-18T01:44:55.923Z,9.66
2023-03-18T01:48:21.160Z,9.55
2023-03-18T01:51:46.353Z,9.41
2023-03-18T01:55:11.557Z,9.23
2023-03-18T01:58:36.725Z,9.11
2023-03-18T02:02:01.945Z,9.01
2023-03-18T02:05:19.462Z,8.88
2023-03-18T02:08:44.674Z,8.8
2023-03-18T02:12:09.897Z,8.8
2023-03-18T02:15:35.081Z,8.88
2023-03-18T02:19:00.269Z,9.02
2023-03-18T02:22:25.470Z,9.14
2023-03-18T02:25:50.692Z,9.24
2023-03-18T02:29:15.893Z,9.34
2023-03-18T02:32:41.141Z,9.38
2023-03-18T02:36:06.222Z,9.41
2023-03-18T02:39:31.428Z,9.46
2023-03-18T02:42:56.652Z,9.48
2023-03-18T02:46:21.929Z,9.49
2023-03-18T02:49:47.024Z,9.48
2023-03-18T02:53:12.219Z,9.5
2023-03-18T02:56:37.414Z,9.49
2023-03-18T03:00:02.605Z,9.53
2023-03-18T03:03:27.886Z,9.62
2023-03-18T03:06:53.012Z,9.71
2023-03-18T03:10:18.198Z,9.78
2023-03-18T03:13:43.370Z,9.76
2023-03-18T03:17:08.593Z,9.71
2023-03-18T03:20:33.907Z,9.67
2023-03-18T03:23:58.987Z,9.62
2023-03-18T03:27:24.203Z,9.59
2023-03-18T03:30:49.477Z,9.59
2023-03-18T03:34:14.622Z,9.6
2023-03-18T03:37:39.831Z,9.6
2023-03-18T03:41:05.020Z,9.59
2023-03-18T03:44:30.217Z,9.59
2023-03-18T03:47:55.391Z,9.6
2023-03-18T03:51:20.589Z,9.61
2023-03-18T03:54:45.812Z,9.64
2023-03-18T03:58:10.969Z,9.7
2023-03-18T04:01:36.183Z,9.75
2023-03-18T04:05:01.356Z,9.81
2023-03-18T04:08:26.581Z,9.85
2023-03-18T04:11:51.799Z,9.89
2023-03-18T04:15:17.011Z,9.93
2023-03-18T04:18:42.173Z,9.98
2023-03-18T04:22:07.355Z,10
2023-03-18T04:25:32.574Z,10.03
2023-03-18T04:28:57.778Z,10.03
2023-03-18T04:32:22.947Z,10.04
2023-03-18T04:35:48.191Z,10.06
2023-03-18T04:39:13.334Z,10.07
2023-03-18T04:42:38.528Z,10.12
2023-03-18T04:46:03.734Z,10.15
2023-03-18T04:49:28.886Z,10.18
2023-03-18T04:52:54.080Z,10.2
2023-03-18T04:56:19.273Z,10.21
2023-03-18T04:59:44.462Z,10.21
2023-03-18T05:03:09.664Z,10.19
2023-03-18T05:06:34.864Z,10.21
2023-03-18T05:10:00.038Z,10.25
2023-03-18T05:13:25.225Z,10.27
2023-03-18T05:16:50.487Z,10.24
2023-03-18T05:20:15.642Z,10.25
2023-03-18T05:23:40.772Z,10.24
2023-03-18T05:27:06.015Z,10.21
2023-03-18T05:30:31.187Z,10.16
2023-03-18T05:33:56.366Z,10.08
2023-03-18T05:37:21.577Z,9.96
2023-03-18T05:40:46.757Z,9.85
2023-03-18T05:44:11.922Z,9.76
2023-03-18T05:47:37.093Z,9.67
2023-03-18T05:51:02.321Z,9.6
2023-03-18T05:54:27.538Z,9.55
2023-03-18T05:57:52.713Z,9.51
2023-03-18T06:01:17.911Z,9.47
2023-03-18T06:04:43.109Z,9.43
2023-03-18T06:08:08.790Z,9.44
2023-03-18T06:11:34.000Z,9.44
2023-03-18T06:14:59.159Z,9.44
2023-03-18T06:18:24.359Z,9.41
2023-03-18T06:21:49.568Z,9.41
2023-03-18T06:25:14.795Z,9.41
2023-03-18T06:28:40.026Z,9.38
2023-03-18T06:32:05.210Z,9.37
2023-03-18T06:35:30.641Z,9.41
2023-03-18T06:38:55.609Z,9.47
2023-03-18T06:42:20.865Z,9.55
2023-03-18T06:45:46.108Z,9.61
2023-03-18T06:49:11.253Z,9.7
2023-03-18T06:52:36.388Z,9.82
2023-03-18T06:56:01.575Z,9.9
2023-03-18T06:59:26.772Z,10.04
2023-03-18T07:02:51.985Z,10.2
2023-03-18T07:06:17.143Z,10.39
2023-03-18T07:09:43.974Z,10.56
2023-03-18T07:13:10.123Z,10.65
2023-03-18T07:16:35.479Z,10.67
2023-03-18T07:20:00.797Z,10.71
2023-03-18T07:23:25.994Z,10.79
2023-03-18T07:26:51.250Z,10.82
2023-03-18T07:30:16.451Z,10.85
2023-03-18T07:33:41.636Z,10.85
2023-03-18T07:37:06.834Z,10.84
2023-03-18T07:40:31.991Z,10.88
2023-03-18T07:43:57.193Z,10.94
2023-03-18T07:47:22.392Z,11.01
2023-03-18T07:50:47.573Z,11.1
2023-03-18T07:54:12.778Z,11.23
2023-03-18T07:57:38.035Z,11.38
2023-03-18T08:01:03.241Z,11.57
2023-03-18T08:04:28.602Z,11.79
2023-03-18T08:07:53.663Z,12.03
2023-03-18T08:11:18.849Z,12.25
2023-03-18T08:14:44.038Z,12.45
2023-03-18T08:18:09.550Z,12.64
2023-03-18T08:21:34.458Z,12.78
2023-03-18T08:24:59.651Z,12.91
2023-03-18T08:28:24.889Z,13.05
2023-03-18T08:31:50.089Z,13.19
2023-03-18T08:35:15.244Z,13.27
2023-03-18T08:38:40.428Z,13.38
2023-03-18T08:42:05.626Z,13.5
2023-03-18T08:45:31.188Z,13.61
2023-03-18T08:48:55.968Z,13.73
2023-03-18T08:52:21.158Z,13.85
2023-03-18T08:55:46.360Z,13.99
2023-03-18T08:59:11.510Z,14.13
2023-03-18T09:02:36.720Z,14.22
2023-03-18T09:06:01.877Z,14.29
2023-03-18T09:09:37.304Z,14.33
2023-03-18T09:12:52.220Z,14.4
2023-03-18T09:16:17.576Z,14.49
2023-03-18T09:19:42.690Z,14.56
2023-03-18T09:23:07.878Z,14.62
2023-03-18T09:26:33.068Z,14.7
2023-03-18T09:29:58.283Z,14.78
2023-03-18T09:33:23.442Z,14.8
2023-03-18T09:36:48.663Z,14.84
2023-03-18T09:40:13.852Z,14.93
2023-03-18T09:43:39.094Z,15.06
2023-03-18T09:47:04.488Z,15.22
2023-03-18T09:50:29.556Z,15.37
2023-03-18T09:53:54.864Z,15.5
2023-03-18T09:57:20.052Z,15.61
2023-03-18T10:00:45.247Z,15.73
2023-03-18T10:04:10.527Z,15.87
2023-03-18T10:07:35.684Z,15.94
2023-03-18T10:11:00.928Z,15.99
2023-03-18T10:14:26.160Z,16.059999
2023-03-18T10:17:51.370Z,16.120001
2023-03-18T10:21:16.575Z,16.25
2023-03-18T10:24:41.762Z,16.370001
2023-03-18T10:28:06.985Z,16.48
2023-03-18T10:31:32.227Z,16.6
2023-03-18T10:34:57.379Z,16.74
2023-03-18T10:38:22.575Z,16.91
2023-03-18T10:41:47.776Z,17.059999
2023-03-18T10:45:13.138Z,17.200001
2023-03-18T10:48:38.206Z,17.309999
2023-03-18T10:52:03.442Z,17.440001
2023-03-18T10:55:28.680Z,17.52
2023-03-18T10:58:53.867Z,17.610001
2023-03-18T11:02:19.129Z,17.68
2023-03-18T11:05:44.270Z,17.700001
2023-03-18T11:09:09.473Z,17.74
2023-03-18T11:12:34.667Z,17.780001
2023-03-18T11:15:59.897Z,17.809999
2023-03-18T11:19:25.127Z,17.879999
2023-03-18T11:22:50.346Z,17.99
2023-03-18T11:26:18.591Z,18.110001
2023-03-18T11:29:46.276Z,18.200001
2023-03-18T11:33:09.069Z,18.299999
2023-03-18T11:36:34.313Z,18.4
2023-03-18T11:39:59.486Z,18.450001
2023-03-18T11:43:24.729Z,18.5
2023-03-18T11:46:49.976Z,18.559999
2023-03-18T11:50:15.206Z,18.629999
2023-03-18T11:53:40.551Z,18.65
2023-03-18T11:57:05.683Z,18.73
2023-03-18T12:00:32.444Z,18.77
2023-03-18T12:03:57.703Z,18.77
2023-03-18T12:07:22.902Z,18.799999
2023-03-18T12:10:48.141Z,18.82
2023-03-18T12:14:13.290Z,18.85
2023-03-18T12:17:38.512Z,18.9
2023-03-18T12:21:03.715Z,18.940001
2023-03-18T12:24:28.962Z,18.98
2023-03-18T12:27:54.185Z,19.02
2023-03-18T12:31:19.397Z,18.99
2023-03-18T12:34:44.564Z,18.84
2023-03-18T12:38:09.731Z,18.83
2023-03-18T12:41:37.101Z,18.809999
2023-03-18T12:45:00.215Z,18.85
2023-03-18T12:48:40.800Z,18.889999
2023-03-18T12:51:50.636Z,18.98
2023-03-18T12:55:15.861Z,19.02
2023-03-18T12:58:41.072Z,19.040001
2023-03-18T13:02:06.439Z,19.030001
2023-03-18T13:05:31.769Z,18.99
2023-03-18T13:08:56.861Z,18.959999
2023-03-18T13:12:22.107Z,18.92
2023-03-18T13:15:47.357Z,18.879999
2023-03-18T13:19:12.597Z,18.870001
2023-03-18T13:22:37.766Z,18.85
2023-03-18T13:26:03.002Z,18.84
2023-03-18T13:29:28.216Z,18.85
2023-03-18T13:32:53.558Z,18.889999
2023-03-18T13:36:18.816Z,18.91
2023-03-18T13:39:44.050Z,18.91
2023-03-18T13:43:09.296Z,18.889999
2023-03-18T13:46:34.630Z,18.91
2023-03-18T13:49:59.855Z,18.870001
2023-03-18T13:53:25.120Z,18.77
2023-03-18T13:56:50.301Z,18.719999
2023-03-18T14:00:15.629Z,18.68
2023-03-18T14:03:40.981Z,18.629999
2023-03-18T14:07:06.101Z,18.6
2023-03-18T14:10:31.384Z,18.51
2023-03-18T14:13:56.583Z,18.41
2023-03-18T14:17:21.869Z,18.379999
2023-03-18T14:20:47.187Z,18.34
2023-03-18T14:24:12.436Z,18.34
2023-03-18T14:27:37.652Z,18.42
2023-03-18T14:31:02.894Z,18.49
2023-03-18T14:34:28.123Z,18.52
2023-03-18T14:37:53.348Z,18.549999
2023-03-18T14:41:18.605Z,18.51
2023-03-18T14:44:43.845Z,18.43
2023-03-18T14:48:09.033Z,18.379999
2023-03-18T14:51:34.282Z,18.35
2023-03-18T14:54:59.504Z,18.309999
2023-03-18T14:58:24.734Z,18.280001
2023-03-18T15:01:49.976Z,18.25
2023-03-18T15:05:15.264Z,18.25
2023-03-18T15:40:48.873Z,15.64
2023-03-18T15:44:14.149Z,16.52
2023-03-18T15:47:39.423Z,16.690001
2023-03-18T15:51:04.666Z,16.799999
2023-03-18T15:54:29.889Z,16.93
2023-03-18T15:57:55.249Z,17.01
2023-03-18T16:01:20.643Z,17.08
2023-03-18T16:04:45.860Z,17.139999
2023-03-18T16:08:11.136Z,17.17
2023-03-18T16:11:36.379Z,17.190001
2023-03-18T16:15:01.708Z,17.190001
2023-03-18T16:18:26.930Z,17.18
2023-03-18T16:21:52.162Z,17.139999
2023-03-18T16:25:17.405Z,17.08
2023-03-18T16:28:43.698Z,17.01
2023-03-18T16:32:07.976Z,16.92
2023-03-18T16:35:33.553Z,16.780001
2023-03-18T16:38:58.341Z,16.639999
2023-03-18T16:42:23.775Z,16.48
2023-03-18T16:45:49.736Z,16.35
2023-03-18T16:49:14.993Z,16.219999
2023-03-18T16:52:40.286Z,16.1
2023-03-18T16:56:05.591Z,16
2023-03-18T16:59:30.772Z,15.89
2023-03-18T17:02:55.985Z,15.79
2023-03-18T17:06:21.217Z,15.7
2023-03-18T17:09:46.415Z,15.58
2023-03-18T17:13:11.647Z,15.47
2023-03-18T17:16:36.988Z,15.37
2023-03-18T17:20:02.190Z,15.26
2023-03-18T17:23:27.447Z,15.21
2023-03-18T17:26:52.669Z,15.11
2023-03-18T17:30:17.863Z,15
2023-03-18T17:33:43.036Z,14.91
2023-03-18T17:37:08.279Z,14.82
2023-03-18T17:40:33.512Z,14.78
2023-03-18T17:43:58.695Z,14.71
2023-03-18T17:47:23.941Z,14.58
2023-03-18T17:50:49.143Z,14.45
2023-03-18T17:54:14.324Z,14.28
2023-03-18T17:57:39.608Z,14.14
2023-03-18T18:01:04.782Z,14.01
2023-03-18T18:04:29.984Z,13.92
2023-03-18T18:07:55.240Z,13.83
2023-03-18T18:11:20.459Z,13.79
2023-03-18T18:14:45.886Z,13.69
2023-03-18T18:18:10.868Z,13.57
2023-03-18T18:21:36.081Z,13.48
2023-03-18T18:25:01.307Z,13.36
2023-03-18T18:28:26.553Z,13.19
2023-03-18T18:31:51.793Z,13.04
2023-03-18T18:35:16.970Z,12.9
2023-03-18T18:38:42.184Z,12.83
2023-03-18T18:42:07.403Z,12.76
2023-03-18T18:45:32.851Z,12.72
2023-03-18T18:48:57.859Z,12.61
2023-03-18T18:52:23.053Z,12.52
2023-03-18T18:55:48.271Z,12.48
2023-03-18T18:59:13.509Z,12.48
2023-03-18T19:02:38.739Z,12.53
2023-03-18T19:06:03.966Z,12.54
2023-03-18T19:09:29.879Z,12.52
2023-03-18T19:12:55.128Z,12.47
2023-03-18T19:16:20.416Z,12.41
2023-03-18T19:19:45.556Z,12.34
2023-03-18T19:23:10.762Z,12.29
2023-03-18T19:26:35.975Z,12.27
2023-03-18T19:30:01.181Z,12.3
2023-03-18T19:33:26.369Z,12.26
2023-03-18T19:36:51.593Z,12.25
2023-03-18T19:40:16.812Z,12.23
2023-03-18T19:43:42.015Z,12.13
2023-03-18T19:47:07.228Z,12.02
2023-03-18T19:50:32.423Z,11.92
2023-03-18T19:53:57.636Z,11.92
2023-03-18T19:57:22.853Z,11.96
2023-03-18T20:00:48.098Z,11.97
2023-03-18T20:04:13.363Z,12
2023-03-18T20:07:38.520Z,12.02
2023-03-18T20:11:03.748Z,12
2023-03-18T20:14:28.994Z,11.97
2023-03-18T20:17:54.201Z,11.97
2023-03-18T20:21:19.410Z,11.99
2023-03-18T20:24:44.602Z,12
2023-03-18T20:28:09.841Z,12.02
2023-03-18T20:31:35.191Z,12.03
2023-03-18T20:35:02.981Z,12.07
2023-03-18T20:38:25.451Z,12.13
2023-03-18T20:41:50.679Z,12.19
2023-03-18T20:45:15.874Z,12.27
2023-03-18T20:48:41.095Z,12.33
2023-03-18T20:52:06.300Z,12.38
2023-03-18T20:55:31.872Z,12.43
2023-03-18T20:58:56.757Z,12.51
2023-03-18T21:02:21.982Z,12.54
2023-03-18T21:05:47.216Z,12.58
2023-03-18T21:09:12.402Z,12.61
2023-03-18T21:12:37.599Z,12.64
2023-03-18T21:16:02.816Z,12.66
2023-03-18T21:19:28.007Z,12.68
2023-03-18T21:22:53.255Z,12.68
2023-03-18T21:26:18.449Z,12.7
2023-03-18T21:29:43.658Z,12.7
2023-03-18T21:33:08.887Z,12.68
2023-03-18T21:36:34.058Z,12.66
2023-03-18T21:39:59.323Z,12.65
2023-03-18T21:43:24.491Z,12.65
2023-03-18T21:46:49.733Z,12.64
2023-03-18T21:50:14.924Z,12.63
2023-03-18T21:53:40.209Z,12.62
2023-03-18T21:57:05.443Z,12.63
2023-03-18T22:00:30.650Z,12.59
2023-03-18T22:03:55.967Z,12.55
2023-03-18T22:07:23.076Z,12.52
2023-03-18T22:10:46.350Z,12.48
2023-03-18T22:14:11.607Z,12.42
2023-03-18T22:17:38.947Z,12.34
2023-03-18T22:21:02.030Z,12.24
2023-03-18T22:24:27.233Z,12.08
2023-03-18T22:27:52.482Z,11.94
2023-03-18T22:31:17.784Z,11.83
2023-03-18T22:34:42.900Z,11.72
2023-03-18T22:38:08.108Z,11.69
2023-03-18T22:41:33.308Z,11.73
2023-03-18T22:44:58.531Z,11.77
2023-03-18T22:48:23.801Z,11.81
2023-03-18T22:51:48.976Z,11.86
2023-03-18T22:55:14.173Z,11.89
2023-03-18T22:58:39.392Z,11.9
2023-03-18T23:02:04.710Z,11.82
2023-03-18T23:05:29.903Z,11.74
2023-03-18T23:08:55.076Z,11.67
2023-03-18T23:12:20.298Z,11.57
2023-03-18T23:15:45.526Z,11.45
2023-03-18T23:19:10.745Z,11.36
2023-03-18T23:22:35.985Z,11.26
2023-03-18T23:26:01.199Z,11.22
2023-03-18T23:29:26.400Z,11.24
2023-03-18T23:32:51.658Z,11.22
2023-03-18T23:36:16.884Z,11.19
2023-03-18T23:39:42.071Z,11.16
2023-03-18T23:43:07.263Z,11.21
2023-03-18T23:46:32.511Z,11.25
2023-03-18T23:49:57.679Z,11.3
2023-03-18T23:53:22.889Z,11.28
2023-03-18T23:56:48.200Z,11.27
